Time;durP1;ratioP1;P1;durP2;ratioP2;P2;SDS_P1;SDS_P2;PMS_P1;PMS_P2;Temp;Humidity;BMP_temperature;BMP_pressure;BME280_temperature;BME280_humidity;BME280_pressure;Samples;Min_cycle;Max_cycle;Signal;HPM_P1;HPM_P2
2022/06/07 00:01:35;;;;;;;;;;;;;;;19.22;100.00;98711.38;5045577;28;21528;-38
2022/06/07 00:04:01;;;;;;;;;;;;;;;19.19;100.00;98702.00;5044931;28;19920;-38
2022/06/07 00:06:27;;;;;;;;;;;;;;;18.74;100.00;98706.91;5047709;28;19921;-38
2022/06/07 00:08:52;;;;;;;;;;;;;;;18.93;100.00;98698.66;5026146;28;20027;-38
2022/06/07 00:11:18;;;;;;;;;;;;;;;18.19;100.00;98701.13;5046917;28;19959;-38
2022/06/07 00:13:44;;;;;;;;;;;;;;;18.53;100.00;98698.81;5025408;28;20007;-38
2022/06/07 00:16:09;;;;;;;;;;;;;;;18.84;100.00;98696.69;5047797;28;19917;-38
2022/06/07 00:18:34;;;;;;;;;;;;;;;18.62;100.00;98692.13;5045814;28;19948;-38
2022/06/07 00:21:01;;;;;;;;;;;;;;;18.61;100.00;98695.69;5045810;28;19917;-38
2022/06/07 00:23:26;;;;;;;;;;;;;;;19.05;100.00;98699.56;5042280;28;19920;-38
2022/06/07 00:25:52;;;;;;;;;;;;;;;19.23;100.00;98697.41;5029410;28;19924;-38
2022/06/07 00:28:17;;;;;;;;;;;;;;;19.65;100.00;98693.38;5028994;28;19927;-38
2022/06/07 00:30:42;;;;;;;;;;;;;;;19.63;100.00;98687.44;5045214;28;19917;-38
2022/06/07 00:33:08;;;;;;;;;;;;;;;19.74;100.00;98686.69;5045175;28;20005;-38
2022/06/07 00:35:33;;;;;;;;;;;;;;;19.80;100.00;98686.22;5031999;28;19920;-38
2022/06/07 00:37:58;;;;;;;;;;;;;;;19.32;100.00;98686.28;5029051;28;19951;-38
2022/06/07 00:40:23;;;;;;;;;;;;;;;19.62;100.00;98682.34;5044073;28;20711;-38
2022/06/07 00:42:49;;;;;;;;;;;;;;;19.95;100.00;98683.41;5042899;28;20385;-38
2022/06/07 00:45:18;;;;;;;;;;;;;;;19.55;100.00;98686.38;5043260;28;19916;-39
2022/06/07 00:47:44;;;;;;;;;;;;;;;19.43;100.00;98683.72;5026984;28;19916;-39
2022/06/07 00:50:09;;;;;;;;;;;;;;;20.05;100.00;98684.38;5042544;28;19921;-38
2022/06/07 00:52:34;;;;;;;;;;;;;;;19.89;100.00;98681.25;5044836;28;19947;-38
2022/06/07 00:55:00;;;;;;;;;;;;;;;20.57;100.00;98675.16;5044571;28;19920;-38
2022/06/07 00:57:26;;;;;;;;;;;;;;;20.17;100.00;98674.78;5043933;28;19964;-39
2022/06/07 00:59:51;;;;;;;;;;;;;;;19.67;100.00;98674.16;5045445;28;20475;-38
2022/06/07 01:02:17;;;;;;;;;;;;;;;20.06;100.00;98675.59;5041500;28;19975;-38
2022/06/07 01:04:42;;;;;;;;;;;;;;;20.01;100.00;98678.53;5046140;28;19927;-38
2022/06/07 01:12:36;;;;;;;;;;;;;;;20.68;100.00;98666.44;5041777;28;19978;-38
2022/06/07 01:15:01;;;;;;;;;;;;;;;20.52;100.00;98660.72;5043120;28;19916;-38
2022/06/07 01:17:26;;;;;;;;;;;;;;;20.93;100.00;98649.63;5026711;28;19948;-38
2022/06/07 01:19:52;;;;;;;;;;;;;;;20.98;100.00;98657.97;5044265;28;19920;-38
2022/06/07 01:22:18;;;;;;;;;;;;;;;21.01;100.00;98651.63;5042931;28;19935;-38
2022/06/07 01:24:43;;;;;;;;;;;;;;;20.62;100.00;98657.31;5043818;28;19921;-38
2022/06/07 01:27:09;;;;;;;;;;;;;;;20.14;100.00;98648.84;5043607;28;20756;-38
2022/06/07 01:29:35;;;;;;;;;;;;;;;20.67;100.00;98655.16;5044139;28;20114;-38
2022/06/07 01:32:00;;;;;;;;;;;;;;;20.69;100.00;98647.19;5041198;28;19921;-38
2022/06/07 01:34:26;;;;;;;;;;;;;;;20.28;100.00;98659.09;5043687;28;19976;-38
2022/06/07 01:36:53;;;;;;;;;;;;;;;20.46;100.00;98651.59;5043194;28;19928;-39
2022/06/07 01:42:02;;;;;;;;;;;;;;;20.59;100.00;98651.47;5044625;28;20471;-38
2022/06/07 01:44:34;;;;;;;;;;;;;;;19.73;100.00;98664.13;5046969;28;19920;-38
2022/06/07 01:47:00;;;;;;;;;;;;;;;19.84;100.00;98658.06;5043017;28;19928;-38
2022/06/07 01:49:25;;;;;;;;;;;;;;;20.51;100.00;98651.22;5043351;28;19917;-38
2022/06/07 01:51:51;;;;;;;;;;;;;;;20.67;100.00;98659.56;5040981;28;19920;-38
2022/06/07 01:54:16;;;;;;;;;;;;;;;20.92;100.00;98652.38;5040555;28;19927;-38
2022/06/07 01:56:42;;;;;;;;;;;;;;;20.75;100.00;98651.09;5040128;28;20057;-38
2022/06/07 01:59:07;;;;;;;;;;;;;;;20.87;100.00;98653.56;5023925;28;19955;-38
2022/06/07 02:01:32;;;;;;;;;;;;;;;20.83;100.00;98649.53;5044469;28;19920;-39
2022/06/07 02:03:58;;;;;;;;;;;;;;;20.87;100.00;98650.13;5045215;28;20271;-38
2022/06/07 02:06:23;;;;;;;;;;;;;;;20.83;100.00;98649.53;5038768;28;19974;-38
2022/06/07 02:08:48;;;;;;;;;;;;;;;20.73;100.00;98640.75;5042598;28;19928;-38
2022/06/07 02:11:15;;;;;;;;;;;;;;;20.52;100.00;98650.25;5042379;28;20741;-38
2022/06/07 02:13:40;;;;;;;;;;;;;;;20.61;100.00;98639.09;5040423;28;20405;-38
2022/06/07 02:16:06;;;;;;;;;;;;;;;20.48;100.00;98642.66;5042963;28;19974;-38
2022/06/07 02:18:31;;;;;;;;;;;;;;;20.41;100.00;98644.09;5044300;28;19924;-38
2022/06/07 02:20:57;;;;;;;;;;;;;;;20.59;100.00;98636.59;5043857;28;20012;-38
2022/06/07 02:23:29;;;;;;;;;;;;;;;20.59;100.00;98636.59;5042699;28;19921;-38
2022/06/07 02:25:55;;;;;;;;;;;;;;;20.47;100.00;98638.38;5042697;28;19921;-38
2022/06/07 02:28:22;;;;;;;;;;;;;;;20.21;100.00;98631.75;5023028;28;19916;-38
2022/06/07 02:30:47;;;;;;;;;;;;;;;20.29;100.00;98626.75;5010367;28;20052;-38
2022/06/07 02:33:12;;;;;;;;;;;;;;;20.17;100.00;98625.91;5043279;28;19920;-38
2022/06/07 02:35:39;;;;;;;;;;;;;;;20.29;100.00;98629.34;5043620;28;19925;-38
2022/06/07 02:38:04;;;;;;;;;;;;;;;20.35;100.00;98622.81;5043967;28;19967;-38
2022/06/07 02:40:29;;;;;;;;;;;;;;;20.21;100.00;98626.53;5025802;28;19921;-38
2022/06/07 02:42:55;;;;;;;;;;;;;;;20.39;100.00;98619.84;5030079;28;19968;-38
2022/06/07 02:45:20;;;;;;;;;;;;;;;20.39;100.00;98624.22;5048331;28;20412;-37
2022/06/07 02:47:45;;;;;;;;;;;;;;;20.28;100.00;98619.88;5048188;28;19967;-38
2022/06/07 02:50:11;;;;;;;;;;;;;;;20.13;100.00;98614.03;5046668;28;19959;-38
2022/06/07 02:52:36;;;;;;;;;;;;;;;20.16;100.00;98618.19;5046737;28;19990;-38
2022/06/07 02:55:02;;;;;;;;;;;;;;;20.21;100.00;98616.88;5044635;28;19927;-38
2022/06/07 02:57:28;;;;;;;;;;;;;;;20.21;100.00;98621.28;5044943;28;20505;-37
2022/06/07 02:59:53;;;;;;;;;;;;;;;20.23;100.00;98619.38;5045379;28;19931;-38
2022/06/07 03:02:18;;;;;;;;;;;;;;;20.16;100.00;98607.72;5045395;28;20278;-38
2022/06/07 03:04:43;;;;;;;;;;;;;;;19.68;100.00;98611.34;5046819;28;19921;-38
2022/06/07 03:07:09;;;;;;;;;;;;;;;19.74;100.00;98618.75;5047669;28;19920;-37
2022/06/07 03:09:34;;;;;;;;;;;;;;;19.76;100.00;98616.03;5045295;28;20015;-38
2022/06/07 03:11:59;;;;;;;;;;;;;;;19.89;100.00;98616.75;5042942;28;19975;-37
2022/06/07 03:14:24;;;;;;;;;;;;;;;19.94;100.00;98619.84;5048120;28;19970;-37
2022/06/07 03:16:50;;;;;;;;;;;;;;;19.81;100.00;98629.56;5048437;28;19921;-38
2022/06/07 03:19:15;;;;;;;;;;;;;;;19.92;100.00;98616.53;5047290;28;19949;-38
2022/06/07 03:21:40;;;;;;;;;;;;;;;20.01;100.00;98621.03;5047000;28;19920;-38
2022/06/07 03:24:06;;;;;;;;;;;;;;;19.68;100.00;98628.81;5046260;28;19916;-38
2022/06/07 03:26:32;;;;;;;;;;;;;;;19.81;100.00;98624.34;5048715;28;20002;-37
2022/06/07 03:28:57;;;;;;;;;;;;;;;19.86;100.00;98622.22;5046240;28;20345;-37
2022/06/07 03:31:22;;;;;;;;;;;;;;;19.73;100.00;98630.16;5045010;28;19920;-38
2022/06/07 03:33:47;;;;;;;;;;;;;;;19.79;100.00;98631.47;5043785;28;20736;-37
2022/06/07 03:36:23;;;;;;;;;;;;;;;19.84;100.00;98629.31;5045913;28;19946;-38
2022/06/07 03:38:48;;;;;;;;;;;;;;;19.92;100.00;98621.75;5028060;28;20366;-38
2022/06/07 03:41:15;;;;;;;;;;;;;;;19.85;100.00;98623.16;5046314;28;20103;-38
2022/06/07 03:43:40;;;;;;;;;;;;;;;19.79;100.00;98631.47;5047361;28;20027;-38
2022/06/07 03:46:09;;;;;;;;;;;;;;;19.97;100.00;98624.84;5048663;28;20054;-38
2022/06/07 03:48:34;;;;;;;;;;;;;;;20.00;100.00;98624.63;5045135;28;20590;-38
2022/06/07 03:51:00;;;;;;;;;;;;;;;20.13;100.00;98628.88;5045085;28;19928;-38
2022/06/07 03:53:25;;;;;;;;;;;;;;;20.14;100.00;98630.53;5046981;28;19981;-38
2022/06/07 03:55:52;;;;;;;;;;;;;;;20.01;100.00;98630.66;5047097;28;20409;-38
2022/06/07 03:58:18;;;;;;;;;;;;;;;20.25;100.00;98627.94;5027606;28;19920;-38
2022/06/07 04:00:43;;;;;;;;;;;;;;;20.08;100.00;98620.56;5044176;28;20313;-38
2022/06/07 04:03:09;;;;;;;;;;;;;;;20.00;100.00;98627.22;5043798;28;19922;-38
2022/06/07 04:05:38;;;;;;;;;;;;;;;20.18;100.00;98626.75;5028657;28;19920;-38
2022/06/07 04:08:12;;;;;;;;;;;;;;;20.52;100.00;98619.69;5026934;28;20301;-38
2022/06/07 04:10:47;;;;;;;;;;;;;;;20.54;100.00;98622.19;5042086;28;19925;-38
2022/06/07 04:13:14;;;;;;;;;;;;;;;20.08;100.00;98634.47;5045637;28;19927;-38
2022/06/07 04:15:39;;;;;;;;;;;;;;;20.29;100.00;98631.97;5045839;28;19925;-38
2022/06/07 04:18:04;;;;;;;;;;;;;;;20.11;100.00;98630.78;5044827;28;20870;-38
2022/06/07 04:20:29;;;;;;;;;;;;;;;20.29;100.00;98629.34;5044312;28;19924;-37
2022/06/07 04:22:55;;;;;;;;;;;;;;;20.18;100.00;98634.59;5046001;28;20025;-38
2022/06/07 04:25:20;;;;;;;;;;;;;;;20.83;100.00;98628.59;5044619;28;19959;-38
2022/06/07 04:27:45;;;;;;;;;;;;;;;20.78;100.00;98624.69;5045162;28;19924;-38
2022/06/07 04:30:11;;;;;;;;;;;;;;;21.03;100.00;98629.59;5046049;28;19981;-38
2022/06/07 04:32:36;;;;;;;;;;;;;;;20.23;100.00;98625.44;5045256;28;19921;-38
2022/06/07 04:35:02;;;;;;;;;;;;;;;20.86;100.00;98628.34;5046588;28;19921;-38
2022/06/07 04:37:27;;;;;;;;;;;;;;;20.75;100.00;98628.38;5047088;28;19960;-38
2022/06/07 04:39:52;;;;;;;;;;;;;;;20.82;100.00;98626.94;5046501;28;20384;-38
2022/06/07 04:42:17;;;;;;;;;;;;;;;20.73;100.00;98622.41;5046975;28;19924;-38
2022/06/07 04:44:43;;;;;;;;;;;;;;;21.11;100.00;98631.59;5046715;28;19965;-38
2022/06/07 04:47:08;;;;;;;;;;;;;;;21.08;100.00;98634.47;5047483;28;20524;-38
2022/06/07 04:49:33;;;;;;;;;;;;;;;20.86;100.00;98628.34;5044847;28;19921;-38
2022/06/07 04:51:58;;;;;;;;;;;;;;;21.24;100.00;98627.03;5045763;28;19935;-38
2022/06/07 04:54:24;;;;;;;;;;;;;;;21.57;100.00;98627.81;5046508;28;19992;-38
2022/06/07 04:56:49;;;;;;;;;;;;;;;21.16;100.00;98626.81;5042322;28;19960;-37
2022/06/07 04:59:14;;;;;;;;;;;;;;;21.49;100.00;98632.91;5045390;28;19976;-38
2022/06/07 05:01:41;;;;;;;;;;;;;;;21.03;100.00;98631.41;5043922;28;19997;-38
2022/06/07 05:04:06;;;;;;;;;;;;;;;21.34;100.00;98623.66;5045976;28;20066;-38
2022/06/07 05:06:33;;;;;;;;;;;;;;;21.36;100.00;98621.72;5046830;28;20443;-38
2022/06/07 05:08:59;;;;;;;;;;;;;;;21.27;100.00;98626.75;5029148;28;20738;-38
2022/06/07 05:11:25;;;;;;;;;;;;;;;21.50;100.00;98624.06;5044118;28;19995;-38
2022/06/07 05:13:54;;;;;;;;;;;;;;;21.63;100.00;98619.47;5044834;28;19979;-38
2022/06/07 05:16:19;;;;;;;;;;;;;;;21.38;100.00;98618.03;5026638;28;19925;-38
2022/06/07 05:18:47;;;;;;;;;;;;;;;20.98;100.00;98623.06;5044799;28;20523;-38
2022/06/07 05:21:12;;;;;;;;;;;;;;;21.74;100.00;98617.75;5026426;28;19952;-38
2022/06/07 05:23:37;;;;;;;;;;;;;;;21.18;100.00;98609.19;5045008;28;21122;-38
2022/06/07 05:26:08;;;;;;;;;;;;;;;22.06;100.00;98615.00;5043773;28;19924;-37
2022/06/07 05:28:33;;;;;;;;;;;;;;;22.13;97.00;98616.13;5025908;28;20348;-38
2022/06/07 05:30:58;;;;;;;;;;;;;;;21.76;97.12;98615.81;5044659;28;19916;-38
2022/06/07 05:33:23;;;;;;;;;;;;;;;21.05;100.00;98619.00;5045113;28;19987;-38
2022/06/07 05:35:49;;;;;;;;;;;;;;;21.46;100.00;98622.66;5024069;28;19982;-38
2022/06/07 05:38:15;;;;;;;;;;;;;;;21.17;97.97;98611.94;5044468;28;19913;-38
2022/06/07 05:40:40;;;;;;;;;;;;;;;21.91;96.78;98609.25;5045852;28;19925;-38
2022/06/07 05:43:06;;;;;;;;;;;;;;;21.80;95.48;98611.97;5026762;28;20189;-38
2022/06/07 05:45:31;;;;;;;;;;;;;;;21.04;98.28;98619.97;5044058;28;19924;-38
2022/06/07 05:47:56;;;;;;;;;;;;;;;22.13;95.62;98611.72;5043563;28;19932;-38
2022/06/07 05:50:22;;;;;;;;;;;;;;;21.91;93.35;98610.09;5038806;28;20403;-38
2022/06/07 05:52:47;;;;;;;;;;;;;;;21.04;96.22;98623.41;5042886;28;20160;-38
2022/06/07 05:55:12;;;;;;;;;;;;;;;22.39;93.10;98611.28;5043074;28;19978;-38
2022/06/07 05:57:37;;;;;;;;;;;;;;;21.91;97.41;98614.50;5043645;28;21477;-38
2022/06/07 06:00:03;;;;;;;;;;;;;;;22.10;93.72;98613.75;5026399;28;19972;-38
2022/06/07 06:02:28;;;;;;;;;;;;;;;22.16;91.93;98615.03;5023717;28;19931;-38
2022/06/07 06:04:54;;;;;;;;;;;;;;;23.21;88.94;98615.44;5043811;28;19971;-38
2022/06/07 06:07:19;;;;;;;;;;;;;;;22.37;91.73;98615.81;5043737;28;19917;-38
2022/06/07 06:12:28;;;;;;;;;;;;;;;22.68;86.22;98619.22;5042786;28;20969;-38
2022/06/07 06:14:53;;;;;;;;;;;;;;;23.65;84.18;98607.06;5021799;28;20003;-38
2022/06/07 06:17:19;;;;;;;;;;;;;;;21.55;89.96;98627.13;5046966;28;19917;-38
2022/06/07 06:19:45;;;;;;;;;;;;;;;21.88;87.80;98620.84;5049742;28;19921;-38
2022/06/07 06:22:11;;;;;;;;;;;;;;;22.01;86.67;98615.41;5044637;28;20003;-38
2022/06/07 06:24:36;;;;;;;;;;;;;;;22.82;85.92;98618.00;5045620;28;19923;-38
2022/06/07 06:27:01;;;;;;;;;;;;;;;22.02;87.98;98614.44;5027861;28;19920;-38
2022/06/07 06:29:26;;;;;;;;;;;;;;;22.50;85.00;98613.78;5046792;28;19916;-38
2022/06/07 06:31:53;;;;;;;;;;;;;;;22.68;83.77;98613.16;5047126;28;19943;-38
2022/06/07 06:34:18;;;;;;;;;;;;;;;22.36;84.46;98611.56;5045452;28;19925;-38
2022/06/07 06:36:45;;;;;;;;;;;;;;;22.58;83.85;98614.91;5043694;28;19945;-38
2022/06/07 06:39:10;;;;;;;;;;;;;;;22.58;84.85;98617.53;5047874;28;19921;-38
2022/06/07 06:41:36;;;;;;;;;;;;;;;22.42;85.84;98616.28;5047605;28;20300;-38
2022/06/07 06:44:02;;;;;;;;;;;;;;;23.20;82.04;98610.34;5046514;28;19932;-38
2022/06/07 06:46:32;;;;;;;;;;;;;;;23.79;80.81;98599.59;5048005;28;20608;-38
2022/06/07 06:48:57;;;;;;;;;;;;;;;21.92;84.07;98618.81;5028238;28;19923;-38
2022/06/07 06:51:23;;;;;;;;;;;;;;;22.41;84.49;98619.03;5047604;28;19916;-38
2022/06/07 06:53:49;;;;;;;;;;;;;;;22.44;85.17;98624.84;5046362;28;19921;-38
2022/06/07 06:56:15;;;;;;;;;;;;;;;23.68;78.31;98606.81;5046195;28;20563;-38
2022/06/07 06:58:40;;;;;;;;;;;;;;;22.89;78.91;98629.63;5049539;28;19920;-38
2022/06/07 07:01:07;;;;;;;;;;;;;;;23.61;76.24;98619.69;5046899;28;19927;-38
2022/06/07 07:03:33;;;;;;;;;;;;;;;23.46;74.73;98613.19;5028505;28;19928;-38
2022/06/07 07:05:59;;;;;;;;;;;;;;;23.20;73.34;98616.41;5045047;28;19920;-38
2022/06/07 07:08:25;;;;;;;;;;;;;;;23.67;75.41;98619.09;5047673;28;20028;-38
2022/06/07 07:10:51;;;;;;;;;;;;;;;22.97;75.99;98619.28;5046816;28;20349;-38
2022/06/07 07:13:16;;;;;;;;;;;;;;;23.18;74.52;98623.59;5025374;28;19956;-38
2022/06/07 07:15:45;;;;;;;;;;;;;;;22.85;74.66;98625.59;5047375;28;20484;-38
2022/06/07 07:18:10;;;;;;;;;;;;;;;22.91;74.24;98613.72;5045463;28;20373;-38
2022/06/07 07:20:38;;;;;;;;;;;;;;;24.07;71.37;98607.53;5044925;28;19925;-38
2022/06/07 07:23:03;;;;;;;;;;;;;;;23.02;73.47;98610.19;5029741;28;20015;-38
2022/06/07 07:25:29;;;;;;;;;;;;;;;22.55;74.35;98610.75;5046592;28;19920;-38
2022/06/07 07:27:56;;;;;;;;;;;;;;;23.19;71.62;98609.47;5048936;28;19920;-38
2022/06/07 07:30:22;;;;;;;;;;;;;;;22.58;71.00;98607.91;5045122;28;19927;-38
2022/06/07 07:32:47;;;;;;;;;;;;;;;22.49;69.16;98604.28;5026701;28;19916;-38
2022/06/07 07:35:13;;;;;;;;;;;;;;;23.17;71.18;98599.13;5044826;28;19992;-38
2022/06/07 07:37:38;;;;;;;;;;;;;;;23.76;62.54;98599.88;5045834;28;19983;-38
2022/06/07 07:40:03;;;;;;;;;;;;;;;24.41;65.59;98602.53;5046401;28;19925;-38
2022/06/07 07:42:29;;;;;;;;;;;;;;;24.58;66.62;98595.66;5047752;28;19916;-38
2022/06/07 07:44:54;;;;;;;;;;;;;;;24.63;62.07;98603.09;5046836;28;20003;-38
2022/06/07 07:47:19;;;;;;;;;;;;;;;24.18;64.13;98604.72;5045053;28;20048;-38
2022/06/07 07:49:44;;;;;;;;;;;;;;;23.87;63.46;98598.06;5047990;28;20049;-38
2022/06/07 07:52:10;;;;;;;;;;;;;;;24.17;58.87;98592.53;5043930;28;20459;-38
2022/06/07 07:54:35;;;;;;;;;;;;;;;24.39;53.28;98607.09;5043122;28;19916;-38
2022/06/07 07:57:01;;;;;;;;;;;;;;;24.60;56.21;98600.78;5045250;28;19935;-38
2022/06/07 07:59:26;;;;;;;;;;;;;;;24.29;57.14;98600.22;5045164;28;19925;-38
2022/06/07 08:01:52;;;;;;;;;;;;;;;25.05;52.93;98598.09;5024347;28;20391;-38
2022/06/07 08:04:17;;;;;;;;;;;;;;;24.68;54.06;98600.03;5046441;28;19920;-38
2022/06/07 08:06:42;;;;;;;;;;;;;;;25.60;56.12;98597.06;5043744;28;20865;-38
2022/06/07 08:09:09;;;;;;;;;;;;;;;25.13;58.75;98597.31;5050263;28;20501;-38
2022/06/07 08:11:35;;;;;;;;;;;;;;;25.29;59.92;98604.56;5049384;28;19971;-38
2022/06/07 08:14:04;;;;;;;;;;;;;;;24.91;62.89;98600.44;5029117;28;19917;-38
2022/06/07 08:16:31;;;;;;;;;;;;;;;26.04;56.96;98591.72;5043057;28;19917;-38
2022/06/07 08:18:56;;;;;;;;;;;;;;;26.48;54.85;98596.88;5042689;28;20515;-38
2022/06/07 08:21:24;;;;;;;;;;;;;;;25.92;57.06;98594.81;5022715;28;20042;-38
2022/06/07 08:23:49;;;;;;;;;;;;;;;25.62;60.00;98594.28;5026169;28;19923;-38
2022/06/07 08:26:16;;;;;;;;;;;;;;;24.32;66.83;98603.41;5045936;28;19992;-38
2022/06/07 08:28:41;;;;;;;;;;;;;;;25.57;58.60;98588.66;5046396;28;19921;-38
2022/06/07 08:31:13;;;;;;;;;;;;;;;26.53;64.18;98587.66;5039286;28;19931;-38
2022/06/07 08:39:07;;;;;;;;;;;;;;;26.45;58.67;98575.22;5044414;28;19974;-38
2022/06/07 08:41:33;;;;;;;;;;;;;;;25.42;58.31;98594.47;5047463;28;19921;-38
2022/06/07 08:44:02;;;;;;;;;;;;;;;25.20;61.13;98597.59;5026840;28;19986;-38
2022/06/07 08:46:28;;;;;;;;;;;;;;;25.55;65.18;98599.34;5025389;28;19946;-38
2022/06/07 08:48:54;;;;;;;;;;;;;;;24.60;63.33;98591.06;5026135;28;19921;-38
2022/06/07 08:51:19;;;;;;;;;;;;;;;25.08;60.91;98593.50;5045897;28;19917;-38
2022/06/07 08:53:46;;;;;;;;;;;;;;;25.03;64.19;98589.50;5043940;28;19917;-38
2022/06/07 08:56:13;;;;;;;;;;;;;;;27.12;52.90;98573.38;5044075;28;19935;-39
2022/06/07 08:58:41;;;;;;;;;;;;;;;27.51;58.33;98583.28;5047207;28;20281;-38
2022/06/07 09:01:18;;;;;;;;;;;;;;;27.16;53.13;98579.16;5026984;28;20807;-38
2022/06/07 09:03:46;;;;;;;;;;;;;;;27.19;54.53;98586.75;5045227;28;19970;-38
2022/06/07 09:06:25;;;;;;;;;;;;;;;26.92;52.69;98585.25;5048571;28;19952;-38
2022/06/07 09:08:54;;;;;;;;;;;;;;;26.10;61.27;98587.66;5045341;28;19917;-38
2022/06/07 09:14:11;;;;;;;;;;;;;;;25.51;60.91;98597.19;5045793;28;19986;-38
2022/06/07 09:16:37;;;;;;;;;;;;;;;26.20;61.84;98596.25;5024697;28;20077;-39
2022/06/07 09:19:07;;;;;;;;;;;;;;;26.57;58.24;98592.47;5027735;28;19983;-38
2022/06/07 09:21:32;;;;;;;;;;;;;;;26.47;55.47;98589.91;5045522;28;20842;-38
2022/06/07 09:23:58;;;;;;;;;;;;;;;27.15;56.00;98592.53;5023618;28;19924;-38
2022/06/07 09:26:25;;;;;;;;;;;;;;;27.53;52.61;98591.06;5024007;28;20012;-38
2022/06/07 09:29:02;;;;;;;;;;;;;;;26.33;62.18;98592.38;5041806;28;20574;-38
2022/06/07 09:31:28;;;;;;;;;;;;;;;27.64;56.23;98587.22;5027470;28;19916;-38
2022/06/07 09:33:55;;;;;;;;;;;;;;;27.82;54.55;98589.66;5043297;28;19927;-38
2022/06/07 09:36:27;;;;;;;;;;;;;;;26.23;58.80;98595.97;5045338;28;19920;-38
2022/06/07 09:38:57;;;;;;;;;;;;;;;27.07;60.13;98588.91;5043463;28;20270;-38
2022/06/07 09:41:36;;;;;;;;;;;;;;;26.82;55.14;98597.78;5045612;28;19943;-38
2022/06/07 09:44:04;;;;;;;;;;;;;;;28.43;53.80;98590.78;5026429;28;20293;-38
2022/06/07 09:46:30;;;;;;;;;;;;;;;28.07;58.88;98591.28;5027048;28;19917;-38
2022/06/07 09:48:56;;;;;;;;;;;;;;;28.00;54.41;98592.94;5041713;28;20293;-38
2022/06/07 09:51:23;;;;;;;;;;;;;;;28.18;54.18;98589.25;5022332;28;19920;-38
2022/06/07 09:54:01;;;;;;;;;;;;;;;27.73;57.32;98591.50;5038905;28;19932;-38
2022/06/07 09:56:29;;;;;;;;;;;;;;;27.57;57.83;98596.84;5043234;28;19923;-38
2022/06/07 09:58:57;;;;;;;;;;;;;;;27.27;58.07;98591.25;5043884;28;19921;-38
2022/06/07 10:01:39;;;;;;;;;;;;;;;27.50;59.81;98596.69;5041161;28;20217;-38
2022/06/07 10:04:06;;;;;;;;;;;;;;;29.36;55.49;98589.88;5044692;28;19977;-38
2022/06/07 10:06:32;;;;;;;;;;;;;;;28.21;62.27;98600.31;5045243;28;19940;-38
2022/06/07 10:09:01;;;;;;;;;;;;;;;27.41;61.33;98587.09;5025654;28;20192;-38
2022/06/07 10:11:29;;;;;;;;;;;;;;;27.48;57.39;98596.00;5039979;28;19919;-38
2022/06/07 10:13:57;;;;;;;;;;;;;;;27.90;60.39;98598.44;5039335;28;19917;-38
2022/06/07 10:16:35;;;;;;;;;;;;;;;27.25;59.66;98588.75;5041982;28;19916;-38
2022/06/07 10:19:19;;;;;;;;;;;;;;;28.06;61.45;98592.28;5043876;28;19916;-38
2022/06/07 10:22:03;;;;;;;;;;;;;;;27.79;61.94;98603.25;5037948;28;19932;-38
2022/06/07 10:24:28;;;;;;;;;;;;;;;27.60;63.40;98592.03;5043921;28;19932;-38
2022/06/07 10:26:53;;;;;;;;;;;;;;;27.46;62.58;98588.25;5043634;28;19955;-38
2022/06/07 10:29:38;;;;;;;;;;;;;;;28.57;62.73;98594.56;5042449;28;20695;-38
2022/06/07 10:32:24;;;;;;;;;;;;;;;29.44;57.43;98591.59;5040296;28;19921;-38
2022/06/07 10:34:50;;;;;;;;;;;;;;;29.49;56.77;98583.09;4992814;28;19916;-38
2022/06/07 10:37:22;;;;;;;;;;;;;;;27.86;61.97;98581.25;5022040;28;20390;-38
2022/06/07 10:40:00;;;;;;;;;;;;;;;27.87;61.59;98580.28;5026401;28;19921;-38
2022/06/07 10:42:45;;;;;;;;;;;;;;;27.72;61.38;98593.34;5040345;28;19920;-38
2022/06/07 10:45:14;;;;;;;;;;;;;;;27.49;60.77;98587.91;5039363;28;20367;-38
2022/06/07 10:47:45;;;;;;;;;;;;;;;28.01;61.62;98591.13;5043759;28;20371;-38
2022/06/07 10:50:14;;;;;;;;;;;;;;;27.43;60.68;98590.41;5042924;28;19927;-38
2022/06/07 10:52:48;;;;;;;;;;;;;;;28.86;58.20;98582.47;5019992;28;20393;-38
2022/06/07 10:55:20;;;;;;;;;;;;;;;27.16;63.75;98594.19;5022008;28;19917;-38
2022/06/07 10:57:54;;;;;;;;;;;;;;;27.11;67.92;98592.84;5024032;28;19917;-37
2022/06/07 11:00:19;;;;;;;;;;;;;;;25.42;73.48;98605.00;5039446;28;19931;-38
2022/06/07 11:03:03;;;;;;;;;;;;;;;26.78;69.01;98585.91;5042850;28;19921;-38
2022/06/07 11:11:06;;;;;;;;;;;;;;;28.33;60.34;98583.06;5026539;28;19955;-38
2022/06/07 11:13:42;;;;;;;;;;;;;;;28.10;60.29;98576.84;5027281;28;19924;-38
2022/06/07 11:16:13;;;;;;;;;;;;;;;28.33;61.45;98582.25;5043356;28;19924;-38
2022/06/07 11:18:40;;;;;;;;;;;;;;;28.58;59.56;98582.97;5025538;28;19924;-38
2022/06/07 11:21:05;;;;;;;;;;;;;;;28.95;59.39;98581.41;5043333;28;19925;-38
2022/06/07 11:23:56;;;;;;;;;;;;;;;28.26;59.30;98576.81;5042531;28;19916;-38
2022/06/07 11:26:22;;;;;;;;;;;;;;;28.20;62.43;98588.09;5003246;28;19928;-39
2022/06/07 11:28:53;;;;;;;;;;;;;;;28.94;59.59;98574.44;5039946;28;19920;-38
2022/06/07 11:31:28;;;;;;;;;;;;;;;28.34;63.65;98579.41;5044386;28;19924;-38
2022/06/07 11:33:53;;;;;;;;;;;;;;;29.65;58.29;98566.19;5043673;28;19917;-38
2022/06/07 11:36:25;;;;;;;;;;;;;;;28.69;60.17;98577.28;5041153;28;20031;-38
2022/06/07 11:39:10;;;;;;;;;;;;;;;28.36;69.04;98571.28;5043973;28;19917;-39
2022/06/07 11:41:39;;;;;;;;;;;;;;;29.51;59.99;98565.19;5046010;28;20020;-38
2022/06/07 11:44:04;;;;;;;;;;;;;;;29.65;56.88;98560.88;5045057;28;19924;-38
2022/06/07 11:46:32;;;;;;;;;;;;;;;27.58;66.00;98569.41;5045784;28;19916;-38
2022/06/07 11:48:57;;;;;;;;;;;;;;;29.09;59.94;98562.09;5042311;28;20512;-38
2022/06/07 11:51:23;;;;;;;;;;;;;;;29.21;61.96;98562.47;5043677;28;19932;-38
2022/06/07 11:53:53;;;;;;;;;;;;;;;30.05;54.34;98548.19;5036970;28;19951;-38
2022/06/07 11:56:27;;;;;;;;;;;;;;;29.78;56.37;98564.59;5025015;28;19952;-38
2022/06/07 11:58:52;;;;;;;;;;;;;;;28.22;60.74;98554.31;5027192;28;19923;-38
2022/06/07 12:01:36;;;;;;;;;;;;;;;27.83;59.30;98551.66;5042135;28;19933;-38
2022/06/07 12:04:20;;;;;;;;;;;;;;;28.14;65.22;98554.34;5037282;28;19916;-38
2022/06/07 12:06:45;;;;;;;;;;;;;;;27.41;63.53;98558.81;5042171;28;19920;-38
2022/06/07 12:09:11;;;;;;;;;;;;;;;27.33;63.52;98561.50;5039665;28;20440;-38
2022/06/07 12:11:40;;;;;;;;;;;;;;;28.88;61.91;98560.06;5026187;28;19935;-38
2022/06/07 12:14:10;;;;;;;;;;;;;;;29.43;55.92;98555.47;5025763;28;19955;-38
2022/06/07 12:16:43;;;;;;;;;;;;;;;30.73;52.11;98538.97;5024281;28;19952;-38
2022/06/07 12:19:18;;;;;;;;;;;;;;;30.95;51.77;98541.63;5046786;28;20595;-39
2022/06/07 12:21:47;;;;;;;;;;;;;;;29.96;49.73;98535.00;5024819;28;21038;-38
2022/06/07 12:24:16;;;;;;;;;;;;;;;30.43;57.20;98533.75;5026320;28;20128;-38
2022/06/07 12:26:42;;;;;;;;;;;;;;;28.96;51.98;98545.91;5040416;28;19920;-38
2022/06/07 12:29:07;;;;;;;;;;;;;;;29.34;57.37;98532.69;5045229;28;19928;-38
2022/06/07 12:31:33;;;;;;;;;;;;;;;29.33;56.41;98536.34;5042877;28;19920;-38
2022/06/07 12:37:03;;;;;;;;;;;;;;;26.91;68.56;98543.97;5042845;28;19928;-38
2022/06/07 12:42:34;;;;;;;;;;;;;;;28.43;62.39;98526.41;5042744;28;19928;-38
2022/06/07 12:45:01;;;;;;;;;;;;;;;29.29;53.96;98532.44;5044689;28;19917;-38
2022/06/07 12:47:28;;;;;;;;;;;;;;;30.42;51.23;98521.47;5042131;28;19981;-39
2022/06/07 12:49:53;;;;;;;;;;;;;;;30.47;52.28;98522.75;5009907;28;19921;-38
2022/06/07 12:52:46;;;;;;;;;;;;;;;29.65;51.39;98519.28;5044568;28;19928;-38
2022/06/07 12:55:12;;;;;;;;;;;;;;;29.37;52.63;98532.31;5042619;28;19982;-38
2022/06/07 12:58:01;;;;;;;;;;;;;;;30.21;53.09;98519.59;5046408;28;20362;-38
2022/06/07 13:00:34;;;;;;;;;;;;;;;29.49;52.49;98524.75;5030964;28;19940;-38
2022/06/07 13:03:04;;;;;;;;;;;;;;;29.94;51.60;98529.06;5042814;28;19917;-38
2022/06/07 13:05:31;;;;;;;;;;;;;;;28.87;56.55;98533.72;5026914;28;19921;-38
2022/06/07 13:07:57;;;;;;;;;;;;;;;29.21;56.46;98532.50;5027532;28;19916;-38
2022/06/07 13:10:29;;;;;;;;;;;;;;;28.95;54.60;98534.50;5042535;28;20023;-38
2022/06/07 13:12:56;;;;;;;;;;;;;;;29.88;51.12;98527.16;5044063;28;19923;-38
2022/06/07 13:15:26;;;;;;;;;;;;;;;30.64;49.35;98526.81;5025764;28;19948;-38